sensor_id;sensor_type;location;lat;lon;timestamp;P1;durP1;ratioP1;P2;durP2;ratioP2
29774;SDS011;16676;51.202;6.774;2024-01-15T00:02:23;7.20;;;4.65;;
29774;SDS011;16676;51.202;6.774;2024-01-15T00:06:25;7.40;;;4.15;;
29774;SDS011;16676;51.202;6.774;2024-01-15T00:10:28;9.10;;;4.75;;
29774;SDS011;16676;51.202;6.774;2024-01-15T00:14:30;6.72;;;4.38;;
29774;SDS011;16676;51.202;6.774;2024-01-15T00:18:33;5.80;;;4.20;;
29774;SDS011;16676;51.202;6.774;2024-01-15T00:22:35;7.45;;;4.65;;
29774;SDS011;16676;51.202;6.774;2024-01-15T00:26:37;8.35;;;4.72;;
29774;SDS011;16676;51.202;6.774;2024-01-15T00:30:39;8.02;;;4.57;;
29774;SDS011;16676;51.202;6.774;2024-01-15T00:34:42;7.22;;;4.70;;
29774;SDS011;16676;51.202;6.774;2024-01-15T00:38:44;6.75;;;4.40;;
29774;SDS011;16676;51.202;6.774;2024-01-15T00:42:47;8.45;;;4.60;;
29774;SDS011;16676;51.202;6.774;2024-01-15T00:46:49;6.25;;;4.50;;
29774;SDS011;16676;51.202;6.774;2024-01-15T00:50:52;6.20;;;4.00;;
29774;SDS011;16676;51.202;6.774;2024-01-15T00:54:55;7.55;;;4.35;;
29774;SDS011;16676;51.202;6.774;2024-01-15T00:58:57;5.45;;;4.07;;
29774;SDS011;16676;51.202;6.774;2024-01-15T01:02:58;6.88;;;4.30;;
29774;SDS011;16676;51.202;6.774;2024-01-15T01:07:02;6.93;;;4.30;;
29774;SDS011;16676;51.202;6.774;2024-01-15T01:11:04;6.90;;;4.07;;
29774;SDS011;16676;51.202;6.774;2024-01-15T01:15:07;7.07;;;4.40;;
29774;SDS011;16676;51.202;6.774;2024-01-15T01:19:09;8.15;;;4.22;;
29774;SDS011;16676;51.202;6.774;2024-01-15T01:23:12;8.75;;;4.55;;
29774;SDS011;16676;51.202;6.774;2024-01-15T01:27:14;7.95;;;4.47;;
29774;SDS011;16676;51.202;6.774;2024-01-15T01:31:16;7.35;;;4.57;;
29774;SDS011;16676;51.202;6.774;2024-01-15T01:35:18;7.28;;;4.35;;
29774;SDS011;16676;51.202;6.774;2024-01-15T01:39:21;6.97;;;4.40;;
29774;SDS011;16676;51.202;6.774;2024-01-15T01:43:23;5.72;;;4.00;;
29774;SDS011;16676;51.202;6.774;2024-01-15T01:47:25;5.40;;;3.80;;
29774;SDS011;16676;51.202;6.774;2024-01-15T01:51:27;6.97;;;4.47;;
29774;SDS011;16676;51.202;6.774;2024-01-15T01:55:31;5.60;;;3.90;;
29774;SDS011;16676;51.202;6.774;2024-01-15T01:59:34;5.18;;;3.75;;
29774;SDS011;16676;51.202;6.774;2024-01-15T02:03:37;5.47;;;4.20;;
29774;SDS011;16676;51.202;6.774;2024-01-15T02:07:41;5.18;;;3.80;;
29774;SDS011;16676;51.202;6.774;2024-01-15T02:11:44;6.32;;;4.03;;
29774;SDS011;16676;51.202;6.774;2024-01-15T02:15:48;7.70;;;4.00;;
29774;SDS011;16676;51.202;6.774;2024-01-15T02:19:49;8.88;;;4.70;;
29774;SDS011;16676;51.202;6.774;2024-01-15T02:23:53;6.78;;;4.05;;
29774;SDS011;16676;51.202;6.774;2024-01-15T02:27:55;7.72;;;4.22;;
29774;SDS011;16676;51.202;6.774;2024-01-15T02:31:57;5.25;;;4.05;;
29774;SDS011;16676;51.202;6.774;2024-01-15T02:35:59;6.50;;;3.67;;
29774;SDS011;16676;51.202;6.774;2024-01-15T02:40:02;5.68;;;4.00;;
29774;SDS011;16676;51.202;6.774;2024-01-15T02:44:04;5.20;;;3.70;;
29774;SDS011;16676;51.202;6.774;2024-01-15T02:48:06;4.80;;;3.67;;
29774;SDS011;16676;51.202;6.774;2024-01-15T02:52:08;5.00;;;3.55;;
29774;SDS011;16676;51.202;6.774;2024-01-15T02:56:11;5.45;;;3.67;;
29774;SDS011;16676;51.202;6.774;2024-01-15T03:00:14;5.28;;;3.80;;
29774;SDS011;16676;51.202;6.774;2024-01-15T03:04:16;6.38;;;3.92;;
29774;SDS011;16676;51.202;6.774;2024-01-15T03:08:18;6.97;;;3.83;;
29774;SDS011;16676;51.202;6.774;2024-01-15T03:12:21;5.63;;;4.10;;
29774;SDS011;16676;51.202;6.774;2024-01-15T03:16:23;6.75;;;3.65;;
29774;SDS011;16676;51.202;6.774;2024-01-15T03:20:25;6.82;;;3.80;;
29774;SDS011;16676;51.202;6.774;2024-01-15T03:24:27;4.20;;;3.08;;
29774;SDS011;16676;51.202;6.774;2024-01-15T03:28:30;5.05;;;3.78;;
29774;SDS011;16676;51.202;6.774;2024-01-15T03:32:32;6.55;;;3.75;;
29774;SDS011;16676;51.202;6.774;2024-01-15T03:36:34;5.28;;;3.70;;
29774;SDS011;16676;51.202;6.774;2024-01-15T03:40:35;5.65;;;3.70;;
29774;SDS011;16676;51.202;6.774;2024-01-15T03:44:39;5.38;;;3.70;;
29774;SDS011;16676;51.202;6.774;2024-01-15T03:48:49;5.05;;;3.45;;
29774;SDS011;16676;51.202;6.774;2024-01-15T03:52:50;5.28;;;3.72;;
29774;SDS011;16676;51.202;6.774;2024-01-15T03:56:52;5.35;;;3.42;;
29774;SDS011;16676;51.202;6.774;2024-01-15T04:00:54;5.65;;;3.90;;
29774;SDS011;16676;51.202;6.774;2024-01-15T04:04:57;6.32;;;4.00;;
29774;SDS011;16676;51.202;6.774;2024-01-15T04:08:59;5.20;;;3.47;;
29774;SDS011;16676;51.202;6.774;2024-01-15T04:13:01;5.70;;;3.88;;
29774;SDS011;16676;51.202;6.774;2024-01-15T04:17:03;4.97;;;3.45;;
29774;SDS011;16676;51.202;6.774;2024-01-15T04:21:07;5.13;;;3.53;;
29774;SDS011;16676;51.202;6.774;2024-01-15T04:25:09;5.18;;;3.50;;
29774;SDS011;16676;51.202;6.774;2024-01-15T04:29:11;5.40;;;3.50;;
29774;SDS011;16676;51.202;6.774;2024-01-15T04:33:13;5.25;;;3.55;;
29774;SDS011;16676;51.202;6.774;2024-01-15T04:37:16;4.93;;;3.40;;
29774;SDS011;16676;51.202;6.774;2024-01-15T04:41:18;5.45;;;3.42;;
29774;SDS011;16676;51.202;6.774;2024-01-15T04:45:20;4.60;;;3.15;;
29774;SDS011;16676;51.202;6.774;2024-01-15T04:49:23;6.40;;;3.47;;
29774;SDS011;16676;51.202;6.774;2024-01-15T04:53:27;4.55;;;2.95;;
29774;SDS011;16676;51.202;6.774;2024-01-15T04:57:29;4.88;;;3.00;;
29774;SDS011;16676;51.202;6.774;2024-01-15T05:01:31;4.40;;;3.28;;
29774;SDS011;16676;51.202;6.774;2024-01-15T05:05:33;5.40;;;3.33;;
29774;SDS011;16676;51.202;6.774;2024-01-15T05:09:36;6.10;;;3.25;;
29774;SDS011;16676;51.202;6.774;2024-01-15T05:13:38;4.78;;;3.38;;
29774;SDS011;16676;51.202;6.774;2024-01-15T05:17:40;5.25;;;3.20;;
29774;SDS011;16676;51.202;6.774;2024-01-15T05:21:42;5.03;;;3.15;;
29774;SDS011;16676;51.202;6.774;2024-01-15T05:25:45;4.90;;;3.10;;
29774;SDS011;16676;51.202;6.774;2024-01-15T05:29:47;3.90;;;2.97;;
29774;SDS011;16676;51.202;6.774;2024-01-15T05:33:49;3.72;;;3.00;;
29774;SDS011;16676;51.202;6.774;2024-01-15T05:37:51;5.00;;;3.35;;
29774;SDS011;16676;51.202;6.774;2024-01-15T05:41:54;4.28;;;2.95;;
29774;SDS011;16676;51.202;6.774;2024-01-15T05:45:56;3.80;;;2.78;;
29774;SDS011;16676;51.202;6.774;2024-01-15T05:49:58;4.80;;;3.22;;
29774;SDS011;16676;51.202;6.774;2024-01-15T05:54:01;4.32;;;2.88;;
29774;SDS011;16676;51.202;6.774;2024-01-15T05:58:04;5.22;;;2.70;;
29774;SDS011;16676;51.202;6.774;2024-01-15T06:02:07;4.40;;;3.13;;
29774;SDS011;16676;51.202;6.774;2024-01-15T06:06:09;3.90;;;2.72;;
29774;SDS011;16676;51.202;6.774;2024-01-15T06:10:11;3.60;;;2.60;;
29774;SDS011;16676;51.202;6.774;2024-01-15T06:14:14;4.35;;;3.00;;
29774;SDS011;16676;51.202;6.774;2024-01-15T06:18:16;5.15;;;2.63;;
29774;SDS011;16676;51.202;6.774;2024-01-15T06:22:18;4.40;;;2.83;;
29774;SDS011;16676;51.202;6.774;2024-01-15T06:26:20;4.78;;;2.72;;
29774;SDS011;16676;51.202;6.774;2024-01-15T06:30:23;3.45;;;2.67;;
29774;SDS011;16676;51.202;6.774;2024-01-15T06:34:25;3.67;;;2.53;;
29774;SDS011;16676;51.202;6.774;2024-01-15T06:38:27;3.55;;;2.47;;
29774;SDS011;16676;51.202;6.774;2024-01-15T06:42:29;4.45;;;2.70;;
29774;SDS011;16676;51.202;6.774;2024-01-15T06:46:32;4.47;;;2.90;;
29774;SDS011;16676;51.202;6.774;2024-01-15T06:50:34;3.83;;;2.88;;
29774;SDS011;16676;51.202;6.774;2024-01-15T06:54:36;4.28;;;2.65;;
29774;SDS011;16676;51.202;6.774;2024-01-15T06:58:38;3.85;;;2.55;;
29774;SDS011;16676;51.202;6.774;2024-01-15T07:02:41;3.92;;;2.33;;
29774;SDS011;16676;51.202;6.774;2024-01-15T07:06:43;4.50;;;2.60;;
29774;SDS011;16676;51.202;6.774;2024-01-15T07:10:45;4.10;;;2.63;;
29774;SDS011;16676;51.202;6.774;2024-01-15T07:14:47;7.78;;;2.80;;
29774;SDS011;16676;51.202;6.774;2024-01-15T07:18:50;4.97;;;2.88;;
29774;SDS011;16676;51.202;6.774;2024-01-15T07:22:52;5.97;;;2.70;;
29774;SDS011;16676;51.202;6.774;2024-01-15T07:26:54;4.53;;;2.65;;
29774;SDS011;16676;51.202;6.774;2024-01-15T07:30:56;5.28;;;2.25;;
29774;SDS011;16676;51.202;6.774;2024-01-15T07:34:59;4.15;;;2.55;;
29774;SDS011;16676;51.202;6.774;2024-01-15T07:39:01;4.13;;;2.67;;
29774;SDS011;16676;51.202;6.774;2024-01-15T07:43:03;6.75;;;2.85;;
29774;SDS011;16676;51.202;6.774;2024-01-15T07:47:05;4.05;;;2.45;;
29774;SDS011;16676;51.202;6.774;2024-01-15T07:51:10;5.60;;;2.10;;
29774;SDS011;16676;51.202;6.774;2024-01-15T07:55:12;4.07;;;2.30;;
29774;SDS011;16676;51.202;6.774;2024-01-15T07:59:14;4.43;;;2.47;;
29774;SDS011;16676;51.202;6.774;2024-01-15T08:03:15;3.17;;;2.40;;
29774;SDS011;16676;51.202;6.774;2024-01-15T08:07:19;3.78;;;2.78;;
29774;SDS011;16676;51.202;6.774;2024-01-15T08:11:21;8.35;;;2.95;;
29774;SDS011;16676;51.202;6.774;2024-01-15T08:15:23;4.55;;;3.10;;
29774;SDS011;16676;51.202;6.774;2024-01-15T08:19:24;5.45;;;3.20;;
29774;SDS011;16676;51.202;6.774;2024-01-15T08:23:28;5.00;;;3.58;;
29774;SDS011;16676;51.202;6.774;2024-01-15T08:27:31;4.80;;;3.55;;
29774;SDS011;16676;51.202;6.774;2024-01-15T08:31:33;4.70;;;3.47;;
29774;SDS011;16676;51.202;6.774;2024-01-15T08:35:35;6.72;;;3.65;;
29774;SDS011;16676;51.202;6.774;2024-01-15T08:39:38;4.75;;;3.60;;
29774;SDS011;16676;51.202;6.774;2024-01-15T08:43:40;6.03;;;4.07;;
29774;SDS011;16676;51.202;6.774;2024-01-15T08:47:42;4.35;;;3.78;;
29774;SDS011;16676;51.202;6.774;2024-01-15T08:51:44;7.50;;;4.70;;
29774;SDS011;16676;51.202;6.774;2024-01-15T08:55:47;7.70;;;4.18;;
29774;SDS011;16676;51.202;6.774;2024-01-15T08:59:49;15.35;;;4.90;;
29774;SDS011;16676;51.202;6.774;2024-01-15T09:03:51;10.00;;;4.68;;
29774;SDS011;16676;51.202;6.774;2024-01-15T09:07:54;14.85;;;5.05;;
29774;SDS011;16676;51.202;6.774;2024-01-15T09:11:57;12.35;;;4.82;;
29774;SDS011;16676;51.202;6.774;2024-01-15T09:15:59;13.00;;;4.95;;
29774;SDS011;16676;51.202;6.774;2024-01-15T09:20:01;7.45;;;4.85;;
29774;SDS011;16676;51.202;6.774;2024-01-15T09:24:04;11.02;;;4.70;;
29774;SDS011;16676;51.202;6.774;2024-01-15T09:28:08;12.48;;;4.82;;
29774;SDS011;16676;51.202;6.774;2024-01-15T09:32:29;11.75;;;4.35;;
29774;SDS011;16676;51.202;6.774;2024-01-15T09:36:52;12.45;;;4.43;;
29774;SDS011;16676;51.202;6.774;2024-01-15T09:41:14;9.05;;;4.45;;
29774;SDS011;16676;51.202;6.774;2024-01-15T09:45:37;9.23;;;4.20;;
29774;SDS011;16676;51.202;6.774;2024-01-15T09:49:40;8.10;;;3.33;;
29774;SDS011;16676;51.202;6.774;2024-01-15T09:53:42;8.77;;;3.88;;
29774;SDS011;16676;51.202;6.774;2024-01-15T09:57:45;16.23;;;3.78;;
29774;SDS011;16676;51.202;6.774;2024-01-15T10:01:48;11.05;;;3.88;;
29774;SDS011;16676;51.202;6.774;2024-01-15T10:05:53;6.95;;;3.53;;
29774;SDS011;16676;51.202;6.774;2024-01-15T10:09:56;8.88;;;3.17;;
29774;SDS011;16676;51.202;6.774;2024-01-15T10:13:58;6.65;;;3.10;;
29774;SDS011;16676;51.202;6.774;2024-01-15T10:18:01;10.75;;;3.50;;
29774;SDS011;16676;51.202;6.774;2024-01-15T10:22:03;9.30;;;3.15;;
29774;SDS011;16676;51.202;6.774;2024-01-15T10:26:05;6.20;;;3.20;;
29774;SDS011;16676;51.202;6.774;2024-01-15T10:30:07;9.40;;;3.00;;
29774;SDS011;16676;51.202;6.774;2024-01-15T10:34:11;12.73;;;3.08;;
29774;SDS011;16676;51.202;6.774;2024-01-15T10:38:15;6.25;;;2.80;;
29774;SDS011;16676;51.202;6.774;2024-01-15T10:42:18;7.40;;;2.65;;
29774;SDS011;16676;51.202;6.774;2024-01-15T10:46:20;8.55;;;2.65;;
29774;SDS011;16676;51.202;6.774;2024-01-15T10:50:24;5.40;;;2.47;;
29774;SDS011;16676;51.202;6.774;2024-01-15T10:54:26;7.28;;;2.58;;
29774;SDS011;16676;51.202;6.774;2024-01-15T10:58:29;5.88;;;2.88;;
29774;SDS011;16676;51.202;6.774;2024-01-15T11:02:35;5.85;;;2.20;;
29774;SDS011;16676;51.202;6.774;2024-01-15T11:06:42;6.57;;;2.50;;
29774;SDS011;16676;51.202;6.774;2024-01-15T11:10:46;4.88;;;2.30;;
29774;SDS011;16676;51.202;6.774;2024-01-15T11:14:52;8.10;;;2.60;;
29774;SDS011;16676;51.202;6.774;2024-01-15T11:19:04;4.20;;;2.05;;
29774;SDS011;16676;51.202;6.774;2024-01-15T11:23:09;6.97;;;2.75;;
29774;SDS011;16676;51.202;6.774;2024-01-15T11:27:11;7.38;;;2.22;;
29774;SDS011;16676;51.202;6.774;2024-01-15T11:31:13;5.45;;;2.17;;
29774;SDS011;16676;51.202;6.774;2024-01-15T11:35:16;7.90;;;2.25;;
29774;SDS011;16676;51.202;6.774;2024-01-15T11:43:44;6.80;;;2.35;;
29774;SDS011;16676;51.202;6.774;2024-01-15T11:47:59;4.68;;;1.95;;
29774;SDS011;16676;51.202;6.774;2024-01-15T11:52:11;4.40;;;1.83;;
29774;SDS011;16676;51.202;6.774;2024-01-15T11:56:15;6.22;;;1.98;;
29774;SDS011;16676;51.202;6.774;2024-01-15T12:00:18;8.32;;;2.30;;
29774;SDS011;16676;51.202;6.774;2024-01-15T12:04:21;7.07;;;2.00;;
29774;SDS011;16676;51.202;6.774;2024-01-15T12:08:23;7.80;;;2.08;;
29774;SDS011;16676;51.202;6.774;2024-01-15T12:12:29;7.18;;;2.15;;
29774;SDS011;16676;51.202;6.774;2024-01-15T12:16:40;12.13;;;2.30;;
29774;SDS011;16676;51.202;6.774;2024-01-15T12:20:42;6.10;;;2.10;;
29774;SDS011;16676;51.202;6.774;2024-01-15T12:24:47;5.72;;;1.90;;
29774;SDS011;16676;51.202;6.774;2024-01-15T12:28:50;8.77;;;2.20;;
29774;SDS011;16676;51.202;6.774;2024-01-15T12:32:52;7.65;;;2.30;;
29774;SDS011;16676;51.202;6.774;2024-01-15T12:36:54;5.80;;;2.30;;
29774;SDS011;16676;51.202;6.774;2024-01-15T12:40:59;5.15;;;2.30;;
29774;SDS011;16676;51.202;6.774;2024-01-15T12:45:03;7.13;;;2.30;;
29774;SDS011;16676;51.202;6.774;2024-01-15T12:49:08;8.90;;;2.53;;
29774;SDS011;16676;51.202;6.774;2024-01-15T12:53:10;7.07;;;2.22;;
29774;SDS011;16676;51.202;6.774;2024-01-15T12:57:12;8.82;;;2.15;;
29774;SDS011;16676;51.202;6.774;2024-01-15T13:01:15;7.85;;;1.98;;
29774;SDS011;16676;51.202;6.774;2024-01-15T13:05:17;6.20;;;1.83;;
29774;SDS011;16676;51.202;6.774;2024-01-15T13:09:21;5.32;;;1.83;;
29774;SDS011;16676;51.202;6.774;2024-01-15T13:13:23;6.97;;;1.60;;
29774;SDS011;16676;51.202;6.774;2024-01-15T13:17:26;4.88;;;1.73;;
29774;SDS011;16676;51.202;6.774;2024-01-15T13:21:29;3.42;;;1.40;;
29774;SDS011;16676;51.202;6.774;2024-01-15T13:25:31;4.47;;;1.65;;
29774;SDS011;16676;51.202;6.774;2024-01-15T13:29:34;3.00;;;1.20;;
29774;SDS011;16676;51.202;6.774;2024-01-15T13:33:38;2.38;;;1.25;;
29774;SDS011;16676;51.202;6.774;2024-01-15T13:37:39;4.03;;;1.23;;
29774;SDS011;16676;51.202;6.774;2024-01-15T13:41:42;3.60;;;1.25;;
29774;SDS011;16676;51.202;6.774;2024-01-15T13:45:44;4.03;;;1.55;;
29774;SDS011;16676;51.202;6.774;2024-01-15T13:49:48;6.90;;;1.10;;
29774;SDS011;16676;51.202;6.774;2024-01-15T13:53:49;3.92;;;1.25;;
29774;SDS011;16676;51.202;6.774;2024-01-15T13:57:51;5.03;;;1.52;;
29774;SDS011;16676;51.202;6.774;2024-01-15T14:01:53;3.92;;;1.30;;
29774;SDS011;16676;51.202;6.774;2024-01-15T14:05:56;3.15;;;1.00;;
29774;SDS011;16676;51.202;6.774;2024-01-15T14:09:58;2.95;;;1.10;;
29774;SDS011;16676;51.202;6.774;2024-01-15T14:14:00;5.15;;;1.05;;
29774;SDS011;16676;51.202;6.774;2024-01-15T14:18:03;4.32;;;1.13;;
29774;SDS011;16676;51.202;6.774;2024-01-15T14:22:06;2.90;;;1.15;;
29774;SDS011;16676;51.202;6.774;2024-01-15T14:26:08;3.55;;;0.95;;
29774;SDS011;16676;51.202;6.774;2024-01-15T14:30:10;3.70;;;1.15;;
29774;SDS011;16676;51.202;6.774;2024-01-15T14:34:16;6.97;;;1.33;;
29774;SDS011;16676;51.202;6.774;2024-01-15T14:38:20;2.08;;;1.20;;
29774;SDS011;16676;51.202;6.774;2024-01-15T14:42:22;4.10;;;1.08;;
29774;SDS011;16676;51.202;6.774;2024-01-15T14:46:25;2.90;;;0.98;;
29774;SDS011;16676;51.202;6.774;2024-01-15T14:50:27;2.45;;;0.98;;
29774;SDS011;16676;51.202;6.774;2024-01-15T14:54:30;3.95;;;1.30;;
29774;SDS011;16676;51.202;6.774;2024-01-15T14:58:32;3.70;;;0.90;;
29774;SDS011;16676;51.202;6.774;2024-01-15T15:02:34;2.47;;;0.95;;
29774;SDS011;16676;51.202;6.774;2024-01-15T15:06:37;1.83;;;0.85;;
29774;SDS011;16676;51.202;6.774;2024-01-15T15:10:40;2.35;;;1.00;;
29774;SDS011;16676;51.202;6.774;2024-01-15T15:14:42;2.35;;;1.08;;
29774;SDS011;16676;51.202;6.774;2024-01-15T15:18:44;1.50;;;0.93;;
29774;SDS011;16676;51.202;6.774;2024-01-15T15:22:47;1.80;;;0.73;;
29774;SDS011;16676;51.202;6.774;2024-01-15T15:26:50;1.35;;;0.90;;
29774;SDS011;16676;51.202;6.774;2024-01-15T15:30:52;2.30;;;1.00;;
29774;SDS011;16676;51.202;6.774;2024-01-15T15:34:54;1.65;;;1.00;;
29774;SDS011;16676;51.202;6.774;2024-01-15T15:38:56;2.03;;;0.60;;
29774;SDS011;16676;51.202;6.774;2024-01-15T15:43:00;1.73;;;1.05;;
29774;SDS011;16676;51.202;6.774;2024-01-15T15:47:02;3.15;;;1.30;;
29774;SDS011;16676;51.202;6.774;2024-01-15T15:51:04;1.75;;;0.70;;
29774;SDS011;16676;51.202;6.774;2024-01-15T15:55:06;1.50;;;0.80;;
29774;SDS011;16676;51.202;6.774;2024-01-15T15:59:10;2.35;;;1.10;;
29774;SDS011;16676;51.202;6.774;2024-01-15T16:03:13;4.00;;;1.02;;
29774;SDS011;16676;51.202;6.774;2024-01-15T16:07:15;3.35;;;0.80;;
29774;SDS011;16676;51.202;6.774;2024-01-15T16:11:17;1.60;;;0.80;;
29774;SDS011;16676;51.202;6.774;2024-01-15T16:15:21;1.65;;;0.85;;
29774;SDS011;16676;51.202;6.774;2024-01-15T16:19:24;2.85;;;0.60;;
29774;SDS011;16676;51.202;6.774;2024-01-15T16:23:25;1.38;;;0.80;;
29774;SDS011;16676;51.202;6.774;2024-01-15T16:27:27;2.58;;;0.80;;
29774;SDS011;16676;51.202;6.774;2024-01-15T16:31:31;2.00;;;0.80;;
29774;SDS011;16676;51.202;6.774;2024-01-15T16:35:33;4.28;;;0.93;;
29774;SDS011;16676;51.202;6.774;2024-01-15T16:39:34;2.15;;;0.90;;
29774;SDS011;16676;51.202;6.774;2024-01-15T16:43:36;1.17;;;0.70;;
29774;SDS011;16676;51.202;6.774;2024-01-15T16:47:40;2.92;;;1.02;;
29774;SDS011;16676;51.202;6.774;2024-01-15T16:51:41;1.73;;;0.57;;
29774;SDS011;16676;51.202;6.774;2024-01-15T16:55:43;1.20;;;0.73;;
29774;SDS011;16676;51.202;6.774;2024-01-15T16:59:45;1.92;;;0.73;;
29774;SDS011;16676;51.202;6.774;2024-01-15T17:03:49;2.65;;;0.90;;
29774;SDS011;16676;51.202;6.774;2024-01-15T17:07:52;3.05;;;1.33;;
29774;SDS011;16676;51.202;6.774;2024-01-15T17:11:54;8.13;;;1.55;;
29774;SDS011;16676;51.202;6.774;2024-01-15T17:15:56;5.78;;;1.30;;
29774;SDS011;16676;51.202;6.774;2024-01-15T17:20:00;7.22;;;1.63;;
29774;SDS011;16676;51.202;6.774;2024-01-15T17:24:03;5.88;;;1.67;;
29774;SDS011;16676;51.202;6.774;2024-01-15T17:28:05;5.55;;;1.63;;
29774;SDS011;16676;51.202;6.774;2024-01-15T17:32:07;11.00;;;2.03;;
29774;SDS011;16676;51.202;6.774;2024-01-15T17:36:10;9.30;;;2.17;;
29774;SDS011;16676;51.202;6.774;2024-01-15T17:40:12;11.38;;;1.52;;
29774;SDS011;16676;51.202;6.774;2024-01-15T17:44:14;9.05;;;1.95;;
29774;SDS011;16676;51.202;6.774;2024-01-15T17:48:17;5.80;;;1.60;;
29774;SDS011;16676;51.202;6.774;2024-01-15T17:52:20;5.43;;;2.35;;
29774;SDS011;16676;51.202;6.774;2024-01-15T17:56:22;7.18;;;2.20;;
29774;SDS011;16676;51.202;6.774;2024-01-15T18:00:24;8.48;;;2.20;;
29774;SDS011;16676;51.202;6.774;2024-01-15T18:04:26;7.03;;;2.30;;
29774;SDS011;16676;51.202;6.774;2024-01-15T18:08:29;8.90;;;2.42;;
29774;SDS011;16676;51.202;6.774;2024-01-15T18:12:31;5.93;;;2.13;;
29774;SDS011;16676;51.202;6.774;2024-01-15T18:16:33;11.45;;;2.30;;
29774;SDS011;16676;51.202;6.774;2024-01-15T18:20:35;7.85;;;2.55;;
29774;SDS011;16676;51.202;6.774;2024-01-15T18:24:38;7.35;;;2.03;;
29774;SDS011;16676;51.202;6.774;2024-01-15T18:28:40;4.60;;;1.70;;
29774;SDS011;16676;51.202;6.774;2024-01-15T18:32:43;4.72;;;2.05;;
29774;SDS011;16676;51.202;6.774;2024-01-15T18:36:44;4.05;;;1.65;;
29774;SDS011;16676;51.202;6.774;2024-01-15T18:40:49;7.55;;;2.10;;
29774;SDS011;16676;51.202;6.774;2024-01-15T18:44:52;4.22;;;1.67;;
29774;SDS011;16676;51.202;6.774;2024-01-15T18:48:54;5.30;;;2.05;;
29774;SDS011;16676;51.202;6.774;2024-01-15T18:52:55;4.07;;;1.98;;
29774;SDS011;16676;51.202;6.774;2024-01-15T18:57:00;11.15;;;2.63;;
29774;SDS011;16676;51.202;6.774;2024-01-15T19:01:02;16.05;;;3.33;;
29774;SDS011;16676;51.202;6.774;2024-01-15T19:05:04;11.25;;;4.13;;
29774;SDS011;16676;51.202;6.774;2024-01-15T19:09:07;10.13;;;3.65;;
29774;SDS011;16676;51.202;6.774;2024-01-15T19:13:11;16.73;;;3.63;;
29774;SDS011;16676;51.202;6.774;2024-01-15T19:17:13;27.60;;;3.80;;
29774;SDS011;16676;51.202;6.774;2024-01-15T19:21:15;14.85;;;4.18;;
29774;SDS011;16676;51.202;6.774;2024-01-15T19:25:17;11.93;;;4.47;;
29774;SDS011;16676;51.202;6.774;2024-01-15T19:29:20;9.05;;;3.83;;
29774;SDS011;16676;51.202;6.774;2024-01-15T19:33:22;11.43;;;3.72;;
29774;SDS011;16676;51.202;6.774;2024-01-15T19:37:24;11.35;;;3.63;;
29774;SDS011;16676;51.202;6.774;2024-01-15T19:41:26;7.97;;;3.50;;
29774;SDS011;16676;51.202;6.774;2024-01-15T19:45:29;8.65;;;2.97;;
29774;SDS011;16676;51.202;6.774;2024-01-15T19:49:31;9.77;;;3.08;;
29774;SDS011;16676;51.202;6.774;2024-01-15T19:53:33;7.65;;;3.20;;
29774;SDS011;16676;51.202;6.774;2024-01-15T19:57:35;6.63;;;2.90;;
29774;SDS011;16676;51.202;6.774;2024-01-15T20:01:38;7.70;;;3.15;;
29774;SDS011;16676;51.202;6.774;2024-01-15T20:05:40;7.22;;;2.80;;
29774;SDS011;16676;51.202;6.774;2024-01-15T20:09:42;5.90;;;2.38;;
29774;SDS011;16676;51.202;6.774;2024-01-15T20:13:44;5.88;;;2.30;;
29774;SDS011;16676;51.202;6.774;2024-01-15T20:17:47;5.93;;;2.20;;
29774;SDS011;16676;51.202;6.774;2024-01-15T20:21:50;5.97;;;2.42;;
29774;SDS011;16676;51.202;6.774;2024-01-15T20:25:52;6.82;;;2.65;;
29774;SDS011;16676;51.202;6.774;2024-01-15T20:29:53;6.00;;;2.45;;
29774;SDS011;16676;51.202;6.774;2024-01-15T20:33:59;8.70;;;2.20;;
29774;SDS011;16676;51.202;6.774;2024-01-15T20:38:01;7.28;;;2.17;;
29774;SDS011;16676;51.202;6.774;2024-01-15T20:42:03;3.95;;;1.98;;
29774;SDS011;16676;51.202;6.774;2024-01-15T20:46:06;3.70;;;1.83;;
29774;SDS011;16676;51.202;6.774;2024-01-15T20:50:09;4.95;;;2.25;;
29774;SDS011;16676;51.202;6.774;2024-01-15T20:54:11;4.20;;;1.77;;
29774;SDS011;16676;51.202;6.774;2024-01-15T20:58:13;3.63;;;1.70;;
29774;SDS011;16676;51.202;6.774;2024-01-15T21:02:22;4.32;;;1.75;;
29774;SDS011;16676;51.202;6.774;2024-01-15T21:06:25;5.25;;;2.00;;
29774;SDS011;16676;51.202;6.774;2024-01-15T21:10:27;9.27;;;1.98;;
29774;SDS011;16676;51.202;6.774;2024-01-15T21:14:29;22.77;;;2.88;;
29774;SDS011;16676;51.202;6.774;2024-01-15T21:18:33;10.48;;;2.47;;
29774;SDS011;16676;51.202;6.774;2024-01-15T21:22:36;14.40;;;2.92;;
29774;SDS011;16676;51.202;6.774;2024-01-15T21:26:38;9.18;;;1.98;;
29774;SDS011;16676;51.202;6.774;2024-01-15T21:30:40;11.60;;;2.38;;
29774;SDS011;16676;51.202;6.774;2024-01-15T21:34:42;12.48;;;2.30;;
29774;SDS011;16676;51.202;6.774;2024-01-15T21:38:45;8.68;;;1.60;;
29774;SDS011;16676;51.202;6.774;2024-01-15T21:42:47;6.85;;;1.70;;
29774;SDS011;16676;51.202;6.774;2024-01-15T21:46:49;9.57;;;2.17;;
29774;SDS011;16676;51.202;6.774;2024-01-15T21:50:50;8.75;;;1.55;;
29774;SDS011;16676;51.202;6.774;2024-01-15T21:54:54;7.07;;;1.98;;
29774;SDS011;16676;51.202;6.774;2024-01-15T21:58:56;7.00;;;1.95;;
29774;SDS011;16676;51.202;6.774;2024-01-15T22:02:58;9.05;;;2.03;;
29774;SDS011;16676;51.202;6.774;2024-01-15T22:07:00;7.90;;;1.90;;
29774;SDS011;16676;51.202;6.774;2024-01-15T22:11:03;5.22;;;1.80;;
29774;SDS011;16676;51.202;6.774;2024-01-15T22:15:06;6.65;;;1.77;;
29774;SDS011;16676;51.202;6.774;2024-01-15T22:19:09;4.85;;;1.65;;
29774;SDS011;16676;51.202;6.774;2024-01-15T22:23:11;6.20;;;1.65;;
29774;SDS011;16676;51.202;6.774;2024-01-15T22:27:14;7.65;;;1.70;;
29774;SDS011;16676;51.202;6.774;2024-01-15T22:31:16;5.88;;;1.65;;
29774;SDS011;16676;51.202;6.774;2024-01-15T22:35:18;5.20;;;1.50;;
29774;SDS011;16676;51.202;6.774;2024-01-15T22:39:20;5.28;;;1.70;;
29774;SDS011;16676;51.202;6.774;2024-01-15T22:43:23;5.45;;;1.60;;
29774;SDS011;16676;51.202;6.774;2024-01-15T22:47:25;5.50;;;1.63;;
29774;SDS011;16676;51.202;6.774;2024-01-15T22:51:27;5.65;;;1.48;;
29774;SDS011;16676;51.202;6.774;2024-01-15T22:55:29;5.30;;;1.38;;
29774;SDS011;16676;51.202;6.774;2024-01-15T22:59:32;5.43;;;1.42;;
29774;SDS011;16676;51.202;6.774;2024-01-15T23:03:34;6.45;;;1.48;;
29774;SDS011;16676;51.202;6.774;2024-01-15T23:07:36;3.97;;;1.52;;
29774;SDS011;16676;51.202;6.774;2024-01-15T23:11:38;4.75;;;1.60;;
29774;SDS011;16676;51.202;6.774;2024-01-15T23:15:42;4.18;;;1.30;;
29774;SDS011;16676;51.202;6.774;2024-01-15T23:19:44;4.88;;;1.30;;
29774;SDS011;16676;51.202;6.774;2024-01-15T23:23:45;3.45;;;1.17;;
29774;SDS011;16676;51.202;6.774;2024-01-15T23:27:47;2.70;;;1.40;;
29774;SDS011;16676;51.202;6.774;2024-01-15T23:31:50;3.53;;;1.20;;
29774;SDS011;16676;51.202;6.774;2024-01-15T23:35:52;3.28;;;1.10;;
29774;SDS011;16676;51.202;6.774;2024-01-15T23:39:54;3.80;;;1.50;;
29774;SDS011;16676;51.202;6.774;2024-01-15T23:43:57;4.05;;;1.33;;
29774;SDS011;16676;51.202;6.774;2024-01-15T23:48:00;2.35;;;1.13;;
29774;SDS011;16676;51.202;6.774;2024-01-15T23:52:03;4.28;;;1.27;;
29774;SDS011;16676;51.202;6.774;2024-01-15T23:56:06;3.75;;;1.27;;
